Time;durP1;ratioP1;P1;durP2;ratioP2;P2;SDS_P1;SDS_P2;PMS_P1;PMS_P2;Temp;Humidity;BMP_temperature;BMP_pressure;BME280_temperature;BME280_humidity;BME280_pressure;Samples;Min_cycle;Max_cycle;Signal;HPM_P1;HPM_P2
2021/08/01 00:00:38;;;;;;;9.83;8.80;;;;;;;24.15;72.55;100621.84;4987961;28;102974;-53
2021/08/01 00:03:06;;;;;;;10.63;8.77;;;;;;;24.15;72.67;100626.59;4985075;28;104064;-53
2021/08/01 00:05:32;;;;;;;9.75;8.95;;;;;;;24.16;72.58;100619.88;4987785;28;102159;-53
2021/08/01 00:07:58;;;;;;;9.70;8.90;;;;;;;24.15;72.50;100619.06;4975441;28;102589;-53
2021/08/01 00:10:25;;;;;;;9.55;8.75;;;;;;;24.15;72.38;100621.84;4980351;28;102274;-53
2021/08/01 00:12:53;;;;;;;10.02;9.23;;;;;;;24.14;72.66;100614.69;4985984;28;103787;-53
2021/08/01 00:15:21;;;;;;;9.68;8.88;;;;;;;24.15;72.80;100616.28;4987415;28;103563;-53
2021/08/01 00:17:48;;;;;;;10.02;9.23;;;;;;;24.15;72.69;100624.63;4987576;28;102323;-53
2021/08/01 00:20:14;;;;;;;10.00;9.10;;;;;;;24.15;72.42;100621.84;4987993;28;102736;-53
2021/08/01 00:22:41;;;;;;;9.93;9.10;;;;;;;24.16;72.53;100633.78;4987372;28;103765;-53
2021/08/01 00:25:10;;;;;;;9.65;8.77;;;;;;;24.16;72.44;100633.78;4994439;28;102589;-53
2021/08/01 00:27:36;;;;;;;10.97;8.97;;;;;;;24.16;72.74;100633.78;4987411;28;102719;-53
2021/08/01 00:30:07;;;;;;;9.70;8.80;;;;;;;24.15;72.44;100643.28;4982464;28;102454;-53
2021/08/01 00:32:35;;;;;;;9.18;8.38;;;;;;;24.15;72.78;100638.53;4977614;28;105232;-54
2021/08/01 00:35:02;;;;;;;9.50;8.60;;;;;;;24.15;72.42;100638.53;4982126;28;102538;-53
2021/08/01 00:37:29;;;;;;;10.05;9.25;;;;;;;24.15;72.65;100635.75;4976156;28;102601;-53
2021/08/01 00:39:56;;;;;;;9.65;8.85;;;;;;;24.14;72.59;100623.03;4993367;28;102199;-53
2021/08/01 00:42:22;;;;;;;9.85;8.85;;;;;;;24.15;72.74;100616.28;4994740;28;104018;-53
2021/08/01 00:44:49;;;;;;;9.63;8.80;;;;;;;24.14;72.47;100614.69;4989608;28;101995;-53
2021/08/01 00:47:16;;;;;;;9.40;8.60;;;;;;;24.15;72.55;100605.16;4990021;28;102435;-53
2021/08/01 00:49:44;;;;;;;9.40;8.65;;;;;;;24.14;72.62;100602.75;4990840;28;102659;-53
2021/08/01 00:52:11;;;;;;;10.40;9.40;;;;;;;24.13;72.60;100606.72;4993161;28;103784;-53
2021/08/01 00:54:38;;;;;;;9.85;8.95;;;;;;;24.12;72.66;100605.88;4990346;28;102354;-53
2021/08/01 00:57:05;;;;;;;9.40;8.60;;;;;;;24.12;72.64;100600.34;4988867;28;102393;-53
2021/08/01 00:59:33;;;;;;;9.57;8.85;;;;;;;24.12;72.54;100605.88;4999892;28;102272;-53
2021/08/01 01:02:05;;;;;;;9.52;8.55;;;;;;;24.13;72.44;100618.66;4999002;28;104013;-53
2021/08/01 01:04:40;;;;;;;8.98;8.18;;;;;;;24.13;72.58;100624.22;4991466;28;102195;-53
2021/08/01 01:07:16;;;;;;;9.13;8.35;;;;;;;24.14;72.41;100630.56;4992256;28;102127;-53
2021/08/01 01:10:00;;;;;;;9.27;8.38;;;;;;;24.14;72.47;100630.56;4989810;28;102184;-53
2021/08/01 01:12:32;;;;;;;8.85;8.15;;;;;;;24.14;72.75;100620.25;4988625;28;103908;-53
2021/08/01 01:15:02;;;;;;;9.30;8.50;;;;;;;24.13;72.55;100624.22;4991471;28;102460;-53
2021/08/01 01:17:32;;;;;;;9.20;8.40;;;;;;;24.12;72.61;100611.44;4983665;28;102662;-53
2021/08/01 01:20:24;;;;;;;9.45;8.60;;;;;;;24.12;72.83;100617.00;4990799;28;102350;-53
2021/08/01 01:23:08;;;;;;;9.20;8.18;;;;;;;24.13;72.47;100607.53;4988884;28;103880;-53
2021/08/01 01:25:41;;;;;;;9.75;8.90;;;;;;;24.14;72.86;100619.44;4983114;28;103433;-53
2021/08/01 01:28:13;;;;;;;9.50;8.70;;;;;;;24.13;72.57;100617.84;4987101;28;102465;-53
2021/08/01 01:30:46;;;;;;;8.98;8.27;;;;;;;24.13;72.46;100629.75;5005121;28;102468;-53
2021/08/01 01:33:18;;;;;;;9.10;8.30;;;;;;;24.14;72.77;100627.78;4997960;28;103946;-53
2021/08/01 01:35:51;;;;;;;9.15;8.35;;;;;;;24.13;72.53;100629.75;5003642;28;102713;-53
2021/08/01 01:38:21;;;;;;;8.63;7.82;;;;;;;24.12;72.78;100633.69;5001679;28;102031;-53
2021/08/01 01:40:53;;;;;;;8.90;8.20;;;;;;;24.13;72.68;100640.09;5010187;28;102153;-53
2021/08/01 01:43:23;;;;;;;8.43;7.78;;;;;;;24.13;72.80;100640.88;5008203;28;104065;-53
2021/08/01 01:45:51;;;;;;;9.25;8.35;;;;;;;24.12;72.50;100650.38;5009803;28;102150;-53
2021/08/01 01:48:17;;;;;;;9.00;8.27;;;;;;;24.14;72.75;100648.06;4998596;28;103119;-53
2021/08/01 01:50:45;;;;;;;9.30;8.50;;;;;;;24.14;72.73;100653.59;5010718;28;102749;-53
2021/08/01 01:53:12;;;;;;;8.95;8.15;;;;;;;24.14;72.85;100648.06;5007774;28;103925;-53
2021/08/01 01:55:40;;;;;;;8.80;8.10;;;;;;;24.14;72.76;100642.50;5006884;28;102442;-53
2021/08/01 01:58:10;;;;;;;8.25;7.55;;;;;;;24.12;72.71;100633.69;5009138;28;102128;-53
2021/08/01 02:00:38;;;;;;;9.15;8.35;;;;;;;24.12;72.48;100644.81;5007272;28;102650;-53
2021/08/01 02:03:04;;;;;;;8.70;7.90;;;;;;;24.13;72.89;100638.09;5009507;28;103918;-53
2021/08/01 02:05:31;;;;;;;9.23;8.38;;;;;;;24.12;72.53;100641.25;5008374;28;102632;-53
2021/08/01 02:07:58;;;;;;;8.85;8.07;;;;;;;24.12;72.73;100639.25;5006804;28;104273;-53
2021/08/01 02:10:29;;;;;;;8.60;7.80;;;;;;;24.13;72.64;100638.09;5008812;28;102502;-53
2021/08/01 02:13:00;;;;;;;9.00;8.30;;;;;;;24.13;72.88;100642.88;5009414;28;104096;-53
2021/08/01 02:15:32;;;;;;;9.48;8.48;;;;;;;24.12;72.78;100655.94;5010414;28;102503;-53
2021/08/01 02:18:02;;;;;;;8.90;8.05;;;;;;;24.12;72.61;100653.16;5018108;28;102584;-54
2021/08/01 02:20:35;;;;;;;8.73;7.82;;;;;;;24.12;72.64;100655.94;5004572;28;102201;-54
2021/08/01 02:23:05;;;;;;;8.77;8.05;;;;;;;24.13;72.60;100646.44;5003674;28;104077;-53
2021/08/01 02:25:32;;;;;;;8.75;8.00;;;;;;;24.13;72.63;100649.22;5007270;28;102518;-53
2021/08/01 02:28:03;;;;;;;8.50;7.80;;;;;;;24.12;72.68;100666.25;5004640;28;102437;-53
2021/08/01 02:30:31;;;;;;;9.10;8.30;;;;;;;24.11;72.59;100659.91;5006068;28;102315;-53
2021/08/01 02:32:59;;;;;;;8.50;7.70;;;;;;;24.12;72.64;100660.69;5005905;28;103712;-53
2021/08/01 02:35:28;;;;;;;8.35;7.60;;;;;;;24.12;72.75;100661.50;4994341;28;102479;-53
2021/08/01 02:37:57;;;;;;;8.68;8.05;;;;;;;24.11;72.89;100659.91;4989761;28;102643;-53
2021/08/01 02:40:25;;;;;;;8.13;7.43;;;;;;;24.11;72.72;100665.47;4986490;28;102526;-53
2021/08/01 02:42:53;;;;;;;8.48;7.78;;;;;;;24.12;72.79;100663.47;4987337;28;103720;-53
2021/08/01 02:45:21;;;;;;;8.40;7.70;;;;;;;24.12;72.71;100660.69;4991835;28;102676;-54
2021/08/01 02:47:49;;;;;;;8.43;7.63;;;;;;;24.11;72.80;100654.34;4988773;28;102664;-54
2021/08/01 02:50:18;;;;;;;8.35;7.65;;;;;;;24.11;72.65;100657.13;4988639;28;102285;-53
2021/08/01 02:52:54;;;;;;;8.23;7.50;;;;;;;24.11;72.70;100654.34;4987396;28;104073;-53
2021/08/01 02:55:22;;;;;;;8.20;7.50;;;;;;;24.12;72.89;100649.56;4989242;28;102723;-53
2021/08/01 02:57:50;;;;;;;8.57;7.88;;;;;;;24.12;73.00;100644.81;4989490;28;102537;-53
2021/08/01 03:00:18;;;;;;;7.90;7.20;;;;;;;24.11;72.79;100653.53;4991182;28;102575;-53
2021/08/01 03:02:47;;;;;;;8.35;7.65;;;;;;;24.11;72.66;100646.00;4990550;28;103977;-53
2021/08/01 03:05:15;;;;;;;8.98;8.10;;;;;;;24.10;72.67;100647.19;4992345;28;102309;-53
2021/08/01 03:07:42;;;;;;;8.07;7.47;;;;;;;24.12;72.92;100650.38;4991606;28;102728;-53
2021/08/01 03:10:10;;;;;;;8.48;7.70;;;;;;;24.12;72.74;100644.81;4992342;28;102494;-53
2021/08/01 03:12:41;;;;;;;8.25;7.55;;;;;;;24.09;72.83;100653.91;4992056;28;104223;-53
2021/08/01 03:15:08;;;;;;;8.82;8.13;;;;;;;24.12;72.94;100649.56;4988754;28;102568;-53
2021/08/01 03:17:35;;;;;;;8.40;7.70;;;;;;;24.11;72.78;100647.97;4986620;28;102736;-53
2021/08/01 03:20:03;;;;;;;8.02;7.43;;;;;;;24.10;72.97;100647.19;4971220;28;102641;-53
2021/08/01 03:22:30;;;;;;;7.95;7.28;;;;;;;24.10;72.72;100657.50;4985633;28;103649;-53
2021/08/01 03:24:57;;;;;;;8.38;7.53;;;;;;;24.11;72.85;100647.97;4986529;28;102916;-56
2021/08/01 03:27:24;;;;;;;7.82;7.13;;;;;;;24.09;72.72;100642.78;4987253;28;102422;-53
2021/08/01 03:29:51;;;;;;;8.60;7.88;;;;;;;24.10;73.04;100641.63;4987884;28;102461;-53
2021/08/01 03:32:18;;;;;;;7.88;7.25;;;;;;;24.10;72.74;100644.41;4987658;28;104021;-53
2021/08/01 03:34:48;;;;;;;7.85;7.20;;;;;;;24.10;72.90;100646.38;4985978;28;102254;-53
2021/08/01 03:37:16;;;;;;;7.53;6.93;;;;;;;24.10;72.93;100647.19;4986788;28;103393;-53
2021/08/01 03:39:42;;;;;;;8.57;7.82;;;;;;;24.10;72.90;100638.03;4983280;28;102459;-53
2021/08/01 03:42:10;;;;;;;8.30;7.60;;;;;;;24.10;72.93;100636.06;4987850;28;103704;-53
2021/08/01 03:44:37;;;;;;;7.60;7.00;;;;;;;24.09;72.98;100641.97;4986751;28;102609;-53
2021/08/01 03:47:04;;;;;;;7.90;7.30;;;;;;;24.09;73.02;100645.56;4986095;28;102321;-53
2021/08/01 03:49:31;;;;;;;8.23;7.05;;;;;;;24.10;72.85;100643.59;4980522;28;102106;-53
2021/08/01 03:51:57;;;;;;;8.32;7.63;;;;;;;24.09;73.17;100640.00;4975693;28;103939;-53
2021/08/01 03:54:26;;;;;;;8.23;7.53;;;;;;;24.10;72.89;100638.84;4987406;28;102331;-53
2021/08/01 03:56:52;;;;;;;;;;;;;;;24.10;73.05;100638.84;4989073;28;102896;-53
2021/08/01 03:59:19;;;;;;;7.30;6.80;;;;;;;24.12;72.96;100644.00;4988924;28;102154;-53
2021/08/01 04:01:46;;;;;;;8.90;8.05;;;;;;;24.10;72.84;100638.84;4987336;28;103929;-53
2021/08/01 04:04:12;;;;;;;8.23;7.43;;;;;;;24.10;73.03;100636.06;4984917;28;102582;-53
2021/08/01 04:06:39;;;;;;;8.38;7.68;;;;;;;24.10;73.09;100647.19;4980758;28;102364;-53
2021/08/01 04:09:05;;;;;;;7.70;7.10;;;;;;;24.12;72.82;100653.16;4979478;28;102909;-53
2021/08/01 04:11:36;;;;;;;7.80;7.10;;;;;;;24.14;73.02;100652.81;4986225;28;103880;-53
2021/08/01 04:14:03;;;;;;;7.80;7.10;;;;;;;24.14;72.71;100652.81;4987394;28;102446;-53
2021/08/01 04:16:30;;;;;;;7.90;7.25;;;;;;;24.12;72.94;100664.28;4986005;28;102652;-53
2021/08/01 04:18:57;;;;;;;8.13;7.53;;;;;;;24.13;73.10;100660.34;4986980;28;102925;-53
2021/08/01 04:21:23;;;;;;;7.78;7.18;;;;;;;24.14;72.92;100664.72;4987120;28;103899;-53
2021/08/01 04:23:51;;;;;;;8.40;7.53;;;;;;;24.13;73.11;100667.88;4980557;28;102588;-53
2021/08/01 04:26:17;;;;;;;7.63;6.93;;;;;;;24.13;72.79;100665.91;4987211;28;102264;-53
2021/08/01 04:28:45;;;;;;;7.70;7.00;;;;;;;24.12;72.96;100666.25;4988041;28;102196;-53
2021/08/01 04:31:12;;;;;;;7.20;6.60;;;;;;;24.12;72.79;100669.84;4986496;28;104301;-53
2021/08/01 04:33:38;;;;;;;7.28;6.70;;;;;;;24.12;73.11;100667.06;4986599;28;102405;-53
2021/08/01 04:36:05;;;;;;;7.95;7.15;;;;;;;24.13;72.99;100668.69;4970147;28;102791;-53
2021/08/01 04:38:32;;;;;;;7.88;7.18;;;;;;;24.13;73.08;100665.09;4988542;28;102571;-53
2021/08/01 04:40:59;;;;;;;7.88;7.15;;;;;;;24.13;73.02;100665.91;4988426;28;104036;-53
2021/08/01 04:43:25;;;;;;;8.10;7.40;;;;;;;24.14;73.05;100675.84;4990054;28;102101;-53
2021/08/01 04:45:53;;;;;;;7.85;6.68;;;;;;;24.15;73.00;100671.91;4984478;28;102707;-53
2021/08/01 04:48:20;;;;;;;8.03;7.40;;;;;;;24.14;73.01;100673.06;4989564;28;102844;-53
2021/08/01 04:50:47;;;;;;;7.80;7.15;;;;;;;24.16;73.02;100667.97;4990366;28;104235;-53
2021/08/01 04:53:13;;;;;;;7.57;6.88;;;;;;;24.15;72.93;100677.47;4984934;28;102438;-53
2021/08/01 04:55:40;;;;;;;7.78;7.18;;;;;;;24.17;73.15;100668.78;4979206;28;102573;-53
2021/08/01 04:58:07;;;;;;;7.57;6.97;;;;;;;24.17;72.96;100669.56;4995770;28;102849;-53
2021/08/01 05:00:33;;;;;;;7.85;7.10;;;;;;;24.16;72.97;100676.31;4984056;28;102978;-53
2021/08/01 05:03:02;;;;;;;7.45;6.95;;;;;;;24.18;73.05;100682.28;4977494;28;102401;-53
2021/08/01 05:05:34;;;;;;;7.82;7.13;;;;;;;24.19;72.89;100685.88;4983129;28;102383;-53
2021/08/01 05:08:02;;;;;;;7.68;6.88;;;;;;;24.20;72.93;100679.97;4989122;28;102144;-53
2021/08/01 05:10:28;;;;;;;7.57;6.97;;;;;;;24.23;72.74;100678.41;4983963;28;103835;-53
2021/08/01 05:12:55;;;;;;;8.13;7.28;;;;;;;24.22;72.76;100677.59;4986631;28;102366;-53
2021/08/01 05:15:24;;;;;;;7.63;7.00;;;;;;;24.23;73.12;100672.84;4990967;28;102500;-53
2021/08/01 05:17:51;;;;;;;7.78;7.07;;;;;;;24.23;72.76;100678.41;4987254;28;104063;-53
2021/08/01 05:20:19;;;;;;;7.82;7.13;;;;;;;24.26;73.11;100676.88;4984870;28;103924;-53
2021/08/01 05:22:45;;;;;;;7.78;7.18;;;;;;;24.27;72.97;100684.03;4988383;28;102035;-53
2021/08/01 05:25:12;;;;;;;7.75;7.15;;;;;;;24.26;72.97;100677.69;4985247;28;102570;-54
2021/08/01 05:27:38;;;;;;;8.10;7.30;;;;;;;24.26;72.78;100682.44;4986642;28;102207;-53
2021/08/01 05:30:06;;;;;;;7.40;6.80;;;;;;;24.29;72.86;100693.63;4997790;28;104026;-53
2021/08/01 05:32:33;;;;;;;7.65;7.05;;;;;;;24.31;72.85;100690.50;4998386;28;102177;-53
2021/08/01 05:35:00;;;;;;;7.38;6.78;;;;;;;24.31;73.00;100684.94;5000148;28;102214;-53
2021/08/01 05:37:30;;;;;;;7.95;7.25;;;;;;;24.31;72.99;100691.31;5008659;28;102206;-53
2021/08/01 05:39:57;;;;;;;6.80;6.30;;;;;;;24.32;73.05;100689.34;5017435;28;103965;-53
2021/08/01 05:42:23;;;;;;;7.10;6.53;;;;;;;24.33;72.91;100690.94;5008658;28;102666;-53
2021/08/01 05:44:50;;;;;;;7.47;6.82;;;;;;;24.35;73.13;100696.94;4992555;28;103690;-53
2021/08/01 05:47:17;;;;;;;8.00;7.20;;;;;;;24.35;72.89;100685.81;5010907;28;102526;-53
2021/08/01 05:49:45;;;;;;;8.07;7.28;;;;;;;24.38;72.87;100693.44;5007492;28;104283;-53
2021/08/01 05:52:14;;;;;;;7.53;6.93;;;;;;;24.37;72.71;100695.41;5003355;28;102686;-53
2021/08/01 05:54:42;;;;;;;7.43;6.80;;;;;;;24.38;72.85;100690.66;5006825;28;102329;-53
2021/08/01 05:57:09;;;;;;;7.35;6.75;;;;;;;24.40;73.01;100705.03;5009693;28;102313;-53
2021/08/01 05:59:35;;;;;;;7.93;7.18;;;;;;;24.41;72.69;100698.28;5007911;28;103625;-53
2021/08/01 06:02:02;;;;;;;7.13;6.53;;;;;;;24.41;72.81;100701.06;5010733;28;102276;-53
2021/08/01 06:04:29;;;;;;;7.85;6.85;;;;;;;24.42;72.84;100700.72;5010426;28;102299;-54
2021/08/01 06:06:56;;;;;;;6.60;6.10;;;;;;;24.43;72.76;100688.41;5004209;28;105978;-53
2021/08/01 06:09:22;;;;;;;6.82;6.13;;;;;;;24.44;72.57;100695.56;5001812;28;103899;-53
2021/08/01 06:11:50;;;;;;;6.97;6.28;;;;;;;24.46;72.70;100692.44;5008948;28;102268;-53
2021/08/01 06:14:17;;;;;;;7.65;6.85;;;;;;;24.46;72.83;100692.44;5009953;28;102538;-53
2021/08/01 06:16:44;;;;;;;7.32;6.82;;;;;;;24.47;72.62;100694.03;5010023;28;102551;-53
2021/08/01 06:19:10;;;;;;;7.00;6.40;;;;;;;24.48;72.73;100706.78;5005824;28;103885;-53
2021/08/01 06:21:37;;;;;;;7.68;7.07;;;;;;;24.50;72.48;100701.66;5006284;28;102059;-53
2021/08/01 06:24:04;;;;;;;7.25;6.60;;;;;;;24.50;72.58;100710.00;5008946;28;102628;-54
2021/08/01 06:26:31;;;;;;;7.00;6.40;;;;;;;;;;5009704;28;102379;-53
2021/08/01 06:28:59;;;;;;;7.00;6.40;;;;;;;24.53;72.59;100709.28;5006656;28;103909;-53
2021/08/01 06:31:26;;;;;;;6.88;6.32;;;;;;;24.54;72.70;100699.75;5005224;28;102320;-53
2021/08/01 06:33:52;;;;;;;7.82;7.00;;;;;;;24.54;72.43;100694.19;5005025;28;102583;-53
2021/08/01 06:36:19;;;;;;;6.90;6.40;;;;;;;24.55;72.46;100692.22;4989112;28;102153;-53
2021/08/01 06:38:46;;;;;;;7.70;7.05;;;;;;;24.53;72.57;100686.22;4987287;28;103654;-53
2021/08/01 06:41:14;;;;;;;7.70;7.00;;;;;;;24.52;72.64;100688.16;4987124;28;102142;-53
2021/08/01 06:43:40;;;;;;;6.70;6.20;;;;;;;24.54;72.71;100683.06;4979381;28;102532;-53
2021/08/01 06:46:09;;;;;;;6.70;6.10;;;;;;;24.55;72.64;100687.44;4986636;28;102732;-54
2021/08/01 06:48:37;;;;;;;7.17;6.53;;;;;;;24.57;72.39;100690.69;4988584;28;103884;-53
2021/08/01 06:51:04;;;;;;;7.22;6.53;;;;;;;24.58;72.46;100689.50;4986220;28;102710;-53
2021/08/01 06:53:31;;;;;;;7.75;7.05;;;;;;;24.59;72.43;100691.09;4989984;28;102356;-53
2021/08/01 06:55:58;;;;;;;7.10;6.53;;;;;;;24.59;72.48;100691.09;4989376;28;102540;-53
2021/08/01 06:58:27;;;;;;;8.00;7.20;;;;;;;24.60;72.66;100691.94;4984880;28;103996;-53
2021/08/01 07:00:54;;;;;;;7.03;6.32;;;;;;;24.59;72.43;100696.66;4985082;28;103793;-53
2021/08/01 07:03:25;;;;;;;7.43;6.82;;;;;;;24.60;72.41;100700.28;4987230;28;102393;-53
2021/08/01 07:05:51;;;;;;;7.72;6.90;;;;;;;24.60;72.55;100703.06;4987120;28;102387;-54
2021/08/01 07:08:18;;;;;;;6.90;6.40;;;;;;;24.61;72.64;100705.47;4984695;28;104062;-53
2021/08/01 07:10:45;;;;;;;7.10;6.60;;;;;;;24.62;72.44;100701.50;4985610;28;102579;-53
2021/08/01 07:13:13;;;;;;;7.13;6.53;;;;;;;24.63;72.44;100708.69;4985034;28;102749;-53
2021/08/01 07:15:40;;;;;;;7.57;6.97;;;;;;;24.64;72.58;100715.88;4988276;28;102726;-53
2021/08/01 07:18:07;;;;;;;7.40;6.80;;;;;;;24.66;72.46;100712.69;4980838;28;103940;-53
2021/08/01 07:20:35;;;;;;;6.90;6.40;;;;;;;24.67;72.36;100714.34;4974251;28;104252;-53
2021/08/01 07:23:05;;;;;;;6.68;6.18;;;;;;;24.66;72.41;100710.72;4986245;28;102621;-53
2021/08/01 07:25:32;;;;;;;7.30;6.60;;;;;;;24.68;72.21;100705.59;4987243;28;103187;-53
2021/08/01 07:27:59;;;;;;;6.57;6.03;;;;;;;24.69;72.15;100700.84;4984654;28;104261;-53
2021/08/01 07:30:26;;;;;;;6.85;6.35;;;;;;;24.69;72.22;100701.63;4987022;28;102587;-53
2021/08/01 07:32:53;;;;;;;6.78;6.25;;;;;;;24.71;72.22;100704.06;4987072;28;102721;-53
2021/08/01 07:35:19;;;;;;;6.70;6.20;;;;;;;24.72;72.32;100702.88;4972599;28;102226;-53
2021/08/01 07:37:48;;;;;;;6.65;6.05;;;;;;;24.73;72.20;100701.72;4977817;28;104041;-53
2021/08/01 07:40:14;;;;;;;7.18;6.63;;;;;;;24.74;72.28;100706.13;4966940;28;103300;-53
2021/08/01 07:42:41;;;;;;;7.20;6.60;;;;;;;24.74;72.18;100702.50;4969760;28;102992;-53
2021/08/01 07:45:23;;;;;;;6.88;6.30;;;;;;;24.75;72.17;100693.00;4968179;28;103654;-53
2021/08/01 07:47:50;;;;;;;7.07;6.47;;;;;;;24.75;72.31;100693.00;4972563;28;103535;-53
2021/08/01 07:50:16;;;;;;;6.90;6.30;;;;;;;24.75;72.12;100704.13;4975643;28;102727;-53
2021/08/01 07:52:42;;;;;;;6.82;6.22;;;;;;;24.77;72.24;100690.66;4984869;28;102716;-53
2021/08/01 07:55:15;;;;;;;6.70;6.20;;;;;;;24.78;72.16;100692.28;4968194;28;102940;-54
2021/08/01 07:57:42;;;;;;;6.78;6.28;;;;;;;24.77;72.62;100690.66;4987416;28;104071;-53
2021/08/01 08:00:13;;;;;;;6.75;6.15;;;;;;;24.77;72.12;100690.66;4984557;28;102071;-53
2021/08/01 08:02:40;;;;;;;6.80;6.28;;;;;;;24.77;72.02;100690.66;4984175;28;103329;-53
2021/08/01 08:05:08;;;;;;;7.25;6.65;;;;;;;24.77;72.07;100691.44;4982066;28;103683;-53
2021/08/01 08:07:35;;;;;;;7.35;6.07;;;;;;;24.77;72.16;100685.88;4984287;28;103936;-53
2021/08/01 08:10:01;;;;;;;7.13;6.53;;;;;;;24.76;72.34;100684.28;4985078;28;103531;-53
2021/08/01 08:12:29;;;;;;;6.88;6.38;;;;;;;24.77;72.29;100683.09;4983016;28;102589;-53
2021/08/01 08:14:55;;;;;;;7.13;6.63;;;;;;;24.80;72.22;100690.72;4992034;28;102352;-53
2021/08/01 08:17:22;;;;;;;7.20;6.60;;;;;;;24.80;72.04;100689.91;4989516;28;103989;-53
2021/08/01 08:19:49;;;;;;;7.03;6.32;;;;;;;24.79;72.29;100688.31;4985672;28;102398;-53
2021/08/01 08:22:15;;;;;;;6.63;6.03;;;;;;;24.81;72.29;100694.28;4986912;28;102757;-54
2021/08/01 08:24:42;;;;;;;7.35;6.75;;;;;;;24.80;72.17;100699.06;4986376;28;102613;-53
2021/08/01 08:27:08;;;;;;;7.28;6.75;;;;;;;24.81;72.19;100697.09;4976591;28;103970;-53
2021/08/01 08:29:37;;;;;;;7.75;7.15;;;;;;;24.82;72.24;100699.50;4986855;28;102257;-53
2021/08/01 08:32:03;;;;;;;7.40;6.78;;;;;;;24.82;72.10;100698.72;4973274;28;102468;-53
2021/08/01 08:34:30;;;;;;;7.80;7.10;;;;;;;24.83;72.08;100689.19;4984458;28;107353;-53
2021/08/01 08:37:00;;;;;;;7.22;6.68;;;;;;;24.83;72.22;100691.97;4985356;28;103898;-53
2021/08/01 08:39:28;;;;;;;8.38;7.68;;;;;;;24.82;72.17;100690.38;4986456;28;102744;-53
2021/08/01 08:41:58;;;;;;;7.57;6.97;;;;;;;24.82;71.91;100690.38;4987993;28;102551;-53
2021/08/01 08:44:25;;;;;;;7.90;7.30;;;;;;;24.81;72.00;100683.16;4982181;28;102575;-53
2021/08/01 08:46:53;;;;;;;7.60;7.00;;;;;;;24.82;72.23;100688.38;4982723;28;104248;-53
2021/08/01 08:49:23;;;;;;;8.15;7.45;;;;;;;24.81;72.06;100674.81;4986440;28;105894;-53
2021/08/01 08:51:53;;;;;;;7.55;6.95;;;;;;;24.81;72.00;100680.38;4986831;28;102458;-53
2021/08/01 08:54:24;;;;;;;8.05;7.35;;;;;;;24.83;72.13;100678.03;4983994;28;102304;-53
2021/08/01 08:56:54;;;;;;;7.72;6.47;;;;;;;24.88;70.47;100681.34;4984037;28;104133;-52
2021/08/01 08:59:21;;;;;;;9.70;6.63;;;;;;;24.91;71.15;100685.34;4983000;28;102761;-52
2021/08/01 09:01:48;;;;;;;7.13;6.43;;;;;;;24.90;71.31;100683.75;4979748;28;102148;-53
2021/08/01 09:04:16;;;;;;;7.63;6.88;;;;;;;24.89;71.57;100682.16;4985394;28;104662;-52
2021/08/01 09:06:43;;;;;;;8.00;7.20;;;;;;;24.88;71.50;100681.34;4988061;28;104294;-52
2021/08/01 09:09:13;;;;;;;7.35;6.75;;;;;;;24.89;71.81;100679.38;4987001;28;102465;-52
2021/08/01 09:11:40;;;;;;;7.85;7.20;;;;;;;24.89;71.64;100682.94;4991249;28;102917;-52
2021/08/01 09:14:17;;;;;;;7.70;7.10;;;;;;;24.91;71.74;100685.34;4986187;28;102844;-53
2021/08/01 09:16:45;;;;;;;7.28;6.72;;;;;;;24.90;71.72;100673.41;4985065;28;103851;-53
2021/08/01 09:19:25;;;;;;;7.28;6.68;;;;;;;24.90;71.68;100678.97;4988740;28;102391;-53
2021/08/01 09:21:52;;;;;;;7.75;7.15;;;;;;;24.89;71.71;100677.38;4988366;28;102558;-53
2021/08/01 09:24:19;;;;;;;8.25;7.57;;;;;;;24.90;71.68;100683.75;4987442;28;102266;-53
2021/08/01 09:26:48;;;;;;;8.05;7.45;;;;;;;24.90;71.59;100684.53;4987822;28;104297;-52
2021/08/01 09:29:15;;;;;;;8.32;7.53;;;;;;;24.90;71.81;100690.13;4980853;28;104529;-52
2021/08/01 09:31:42;;;;;;;8.73;8.02;;;;;;;24.91;71.83;100690.91;4985806;28;102628;-52
2021/08/01 09:34:27;;;;;;;8.57;7.78;;;;;;;24.91;71.58;100682.56;4988964;28;103097;-53
2021/08/01 09:36:55;;;;;;;8.57;7.88;;;;;;;24.90;71.80;100686.53;4989709;28;103508;-52
2021/08/01 09:39:22;;;;;;;9.30;8.53;;;;;;;24.89;71.83;100694.09;4980271;28;102520;-52
2021/08/01 09:41:58;;;;;;;8.77;8.00;;;;;;;24.89;71.90;100676.56;4989237;28;102702;-52
2021/08/01 09:44:25;;;;;;;8.68;7.97;;;;;;;24.89;71.72;100679.38;4991917;28;102583;-52
2021/08/01 09:46:58;;;;;;;9.07;8.27;;;;;;;24.89;71.88;100684.94;4988704;28;103386;-52
2021/08/01 09:49:29;;;;;;;8.75;8.05;;;;;;;24.88;71.82;100680.50;4982500;28;102687;-53
2021/08/01 09:51:57;;;;;;;8.65;7.93;;;;;;;24.88;71.66;100686.09;4987851;28;102808;-52
2021/08/01 09:54:25;;;;;;;8.15;7.55;;;;;;;24.90;71.61;100681.75;4986725;28;102387;-52
2021/08/01 09:56:53;;;;;;;7.85;7.25;;;;;;;24.94;71.64;100679.84;4985836;28;104115;-53
2021/08/01 09:59:21;;;;;;;8.38;7.68;;;;;;;24.91;71.56;100685.34;4982652;28;102356;-53
2021/08/01 10:01:50;;;;;;;9.15;8.35;;;;;;;24.88;71.65;100678.56;4984288;28;103502;-52
2021/08/01 10:04:24;;;;;;;8.43;7.65;;;;;;;24.89;71.78;100676.56;4986897;28;102592;-53
2021/08/01 10:07:03;;;;;;;8.77;7.88;;;;;;;24.90;71.58;100683.75;4988425;28;103842;-53
2021/08/01 10:09:31;;;;;;;9.27;8.48;;;;;;;24.89;71.82;100671.81;4987533;28;102612;-53
2021/08/01 10:11:58;;;;;;;8.82;8.13;;;;;;;24.88;71.85;100669.38;4988533;28;102166;-53
2021/08/01 10:14:26;;;;;;;8.90;8.00;;;;;;;24.87;71.91;100662.22;4989116;28;102644;-53
2021/08/01 10:16:56;;;;;;;8.90;8.10;;;;;;;24.85;71.71;100670.16;4970349;28;104074;-52
2021/08/01 10:19:22;;;;;;;9.30;8.40;;;;;;;24.83;71.72;100667.72;4988416;28;103809;-53
2021/08/01 10:21:54;;;;;;;8.68;7.97;;;;;;;24.82;71.90;100677.25;4988727;28;102677;-52
2021/08/01 10:24:24;;;;;;;7.38;5.90;;;;;;;24.98;68.67;100679.91;4988538;28;102266;-51
2021/08/01 10:26:52;;;;;;;10.80;6.00;;;;;;;25.05;66.74;100674.47;4988907;28;103733;-51
2021/08/01 10:29:30;;;;;;;6.28;4.80;;;;;;;25.03;65.16;100676.00;4988061;28;102507;-50
2021/08/01 10:32:03;;;;;;;9.95;5.85;;;;;;;25.04;65.87;100683.22;4990298;28;102520;-50
2021/08/01 10:34:40;;;;;;;9.75;5.93;;;;;;;25.07;66.17;100663.78;4993976;28;102113;-50
2021/08/01 10:37:10;;;;;;;11.43;5.93;;;;;;;25.04;67.46;100666.50;5006826;28;103998;-51
2021/08/01 10:39:43;;;;;;;6.90;6.10;;;;;;;25.05;68.06;100662.53;5002054;28;102542;-51
2021/08/01 10:42:16;;;;;;;7.47;6.55;;;;;;;25.03;68.93;100659.31;5007083;28;102240;-51
2021/08/01 10:44:46;;;;;;;7.05;6.45;;;;;;;25.02;69.30;100661.28;5009858;28;102696;-51
2021/08/01 10:47:13;;;;;;;15.32;7.75;;;;;;;24.99;69.76;100664.81;5005735;28;104043;-51
2021/08/01 10:49:42;;;;;;;8.02;7.30;;;;;;;25.00;69.66;100660.06;5006213;28;102441;-51
2021/08/01 10:52:11;;;;;;;8.63;7.32;;;;;;;24.99;69.84;100650.88;5001920;28;102648;-51
2021/08/01 10:54:53;;;;;;;;;;;;;;;25.00;69.97;100671.22;5009704;28;102235;-51
2021/08/01 10:57:22;;;;;;;8.10;7.15;;;;;;;24.97;70.27;100667.19;4999991;28;103892;-50
2021/08/01 10:59:58;;;;;;;;;;;;;;;24.98;70.29;100663.22;5000709;28;105730;-51
2021/08/01 11:02:26;;;;;;;8.45;7.70;;;;;;;24.95;70.45;100666.72;5008925;28;102427;-51
2021/08/01 11:04:54;;;;;;;8.57;7.50;;;;;;;24.96;70.29;100653.63;5009156;28;102561;-51
2021/08/01 11:08:03;;;;;;;9.20;8.00;;;;;;;24.96;70.51;100659.22;5006011;28;103862;-51
2021/08/01 11:10:33;;;;;;;8.82;7.85;;;;;;;24.94;70.39;100656.78;5006215;28;104803;-51
2021/08/01 11:13:20;;;;;;;8.73;7.82;;;;;;;24.92;70.54;100654.38;5007935;28;102331;-50
2021/08/01 11:15:49;;;;;;;8.95;8.15;;;;;;;24.92;70.39;100661.94;5004737;28;102367;-51
2021/08/01 11:18:30;;;;;;;8.50;7.80;;;;;;;24.93;70.87;100658.75;5005161;28;104249;-51
2021/08/01 11:21:03;;;;;;;8.80;7.90;;;;;;;24.92;70.79;100648.00;5003941;28;102371;-51
2021/08/01 11:24:08;;;;;;;8.70;7.85;;;;;;;24.93;70.79;100644.84;4999284;28;102601;-51
2021/08/01 11:26:36;;;;;;;8.45;7.65;;;;;;;24.91;70.99;100646.38;5001840;28;102735;-50